createdAt,value
2019-05-22T00:01:42.588Z,99.90
2019-05-22T00:04:11.584Z,99.90
2019-05-22T00:06:42.652Z,99.90
2019-05-22T00:09:11.333Z,99.90
2019-05-22T00:11:39.035Z,99.90
2019-05-22T00:14:06.729Z,99.90
2019-05-22T00:16:34.272Z,99.90
2019-05-22T00:19:02.232Z,99.90
2019-05-22T00:21:29.503Z,99.90
2019-05-22T00:23:56.383Z,99.90
2019-05-22T00:26:22.643Z,99.90
2019-05-22T00:28:49.807Z,99.90
2019-05-22T00:31:17.828Z,99.90
2019-05-22T00:33:43.965Z,99.90
2019-05-22T00:36:12.516Z,99.90
2019-05-22T00:38:39.102Z,99.90
2019-05-22T00:41:07.049Z,99.90
2019-05-22T00:43:41.273Z,99.90
2019-05-22T00:46:09.252Z,99.90
2019-05-22T00:48:37.110Z,99.90
2019-05-22T00:51:29.155Z,99.90
2019-05-22T00:53:58.020Z,99.90
2019-05-22T00:56:30.731Z,99.90
2019-05-22T00:59:16.856Z,99.90
2019-05-22T01:01:45.303Z,99.90
2019-05-22T01:04:13.350Z,99.90
2019-05-22T01:06:43.158Z,99.90
2019-05-22T01:09:19.600Z,99.90
2019-05-22T01:11:47.472Z,99.90
2019-05-22T01:14:17.249Z,99.90
2019-05-22T01:16:45.647Z,99.90
2019-05-22T01:19:12.124Z,99.90
2019-05-22T01:21:38.939Z,99.90
2019-05-22T01:24:06.496Z,99.90
2019-05-22T01:26:33.612Z,99.90
2019-05-22T01:29:02.646Z,99.90
2019-05-22T01:31:36.232Z,99.90
2019-05-22T01:34:07.219Z,99.90
2019-05-22T01:36:35.478Z,99.90
2019-05-22T01:39:07.299Z,99.90
2019-05-22T01:41:40.048Z,99.90
2019-05-22T01:44:08.555Z,99.90
2019-05-22T01:46:39.052Z,99.90
2019-05-22T01:49:09.728Z,99.90
2019-05-22T01:51:38.094Z,99.90
2019-05-22T01:54:06.707Z,99.90
2019-05-22T01:56:34.812Z,99.90
2019-05-22T01:59:02.272Z,99.90
2019-05-22T02:01:29.843Z,99.90
2019-05-22T02:03:58.474Z,99.90
2019-05-22T02:06:25.691Z,99.90
2019-05-22T02:09:06.376Z,99.90
2019-05-22T02:11:32.460Z,99.90
2019-05-22T02:14:11.884Z,99.90
2019-05-22T02:16:55.557Z,99.90
2019-05-22T02:19:11.247Z,99.90
2019-05-22T02:21:37.328Z,99.90
2019-05-22T02:24:04.296Z,99.90
2019-05-22T02:26:31.460Z,99.90
2019-05-22T02:29:00.165Z,99.90
2019-05-22T02:31:28.132Z,99.90
2019-05-22T02:34:00.869Z,99.90
2019-05-22T02:36:27.968Z,99.90
2019-05-22T02:38:54.122Z,99.90
2019-05-22T02:41:22.881Z,99.90
2019-05-22T02:43:48.940Z,99.90
2019-05-22T02:46:14.993Z,99.90
2019-05-22T02:48:42.568Z,99.90
2019-05-22T02:51:09.236Z,99.90
2019-05-22T02:53:35.905Z,99.90
2019-05-22T02:56:02.051Z,99.90
2019-05-22T02:58:30.880Z,99.90
2019-05-22T03:01:01.864Z,99.90
2019-05-22T03:03:30.805Z,99.90
2019-05-22T03:05:57.064Z,99.90
2019-05-22T03:08:26.951Z,99.90
2019-05-22T03:10:53.506Z,99.90
2019-05-22T03:13:23.365Z,99.90
2019-05-22T03:15:51.937Z,99.90
2019-05-22T03:18:20.009Z,99.90
2019-05-22T03:20:47.664Z,99.90
2019-05-22T03:23:32.250Z,99.90
2019-05-22T03:25:58.324Z,99.90
2019-05-22T03:28:24.980Z,99.90
2019-05-22T03:30:51.257Z,99.90
2019-05-22T03:33:17.712Z,99.90
2019-05-22T03:35:50.301Z,99.90
2019-05-22T03:38:18.364Z,99.90
2019-05-22T03:40:45.025Z,99.90
2019-05-22T03:43:23.021Z,99.90
2019-05-22T03:45:50.064Z,99.90
2019-05-22T03:48:16.579Z,99.90
2019-05-22T03:50:42.937Z,99.90
2019-05-22T03:53:15.812Z,99.90
2019-05-22T03:55:42.540Z,99.90
2019-05-22T03:58:08.828Z,99.90
2019-05-22T04:00:36.332Z,99.90
2019-05-22T04:03:03.085Z,99.90
2019-05-22T04:05:29.135Z,99.90
2019-05-22T04:07:57.751Z,99.90
2019-05-22T04:10:28.289Z,99.90
2019-05-22T04:12:55.863Z,99.90
2019-05-22T04:15:22.608Z,99.90
2019-05-22T04:17:50.276Z,99.90
2019-05-22T04:20:19.257Z,99.90
2019-05-22T04:22:46.223Z,99.90
2019-05-22T04:25:12.396Z,99.90
2019-05-22T04:27:40.215Z,99.90
2019-05-22T04:30:09.731Z,99.90
2019-05-22T04:32:37.116Z,99.90
2019-05-22T04:35:06.607Z,99.90
2019-05-22T04:37:33.758Z,99.90
2019-05-22T04:40:12.887Z,99.90
2019-05-22T04:42:40.349Z,99.90
2019-05-22T04:45:13.747Z,99.90
2019-05-22T04:47:44.112Z,99.90
2019-05-22T04:50:10.900Z,99.90
2019-05-22T04:52:37.039Z,99.90
2019-05-22T04:55:07.798Z,99.90
2019-05-22T04:57:34.669Z,99.90
2019-05-22T05:00:01.224Z,99.90
2019-05-22T05:02:27.389Z,99.90
2019-05-22T05:04:53.472Z,99.90
2019-05-22T05:07:20.552Z,99.90
2019-05-22T05:09:46.724Z,99.90
2019-05-22T05:12:13.220Z,99.90
2019-05-22T05:14:39.591Z,99.90
2019-05-22T05:17:07.152Z,99.90
2019-05-22T05:19:33.312Z,99.90
2019-05-22T05:21:59.366Z,99.90
2019-05-22T05:24:25.543Z,99.90
2019-05-22T05:26:52.219Z,99.90
2019-05-22T05:29:26.654Z,99.90
2019-05-22T05:31:53.243Z,99.90
2019-05-22T05:34:31.774Z,99.90
2019-05-22T05:37:00.627Z,99.90
2019-05-22T05:39:37.233Z,99.90
2019-05-22T05:42:04.215Z,99.90
2019-05-22T05:44:30.589Z,99.90
2019-05-22T05:46:56.850Z,99.90
2019-05-22T05:49:23.708Z,99.90
2019-05-22T05:51:49.955Z,99.90
2019-05-22T05:54:18.520Z,99.90
2019-05-22T05:56:45.428Z,99.90
2019-05-22T05:59:13.435Z,99.90
2019-05-22T06:01:47.935Z,99.90
2019-05-22T06:04:32.216Z,99.90
2019-05-22T06:06:54.359Z,99.90
2019-05-22T06:09:21.241Z,99.90
2019-05-22T06:11:51.606Z,99.90
2019-05-22T06:14:27.541Z,99.90
2019-05-22T06:17:04.204Z,99.90
2019-05-22T06:19:32.675Z,99.90
2019-05-22T06:21:59.728Z,99.90
2019-05-22T06:24:36.130Z,99.90
2019-05-22T06:27:14.257Z,99.90
2019-05-22T06:29:56.652Z,99.90
2019-05-22T06:32:57.396Z,99.90
2019-05-22T06:35:27.568Z,99.90
2019-05-22T06:38:21.913Z,99.90
2019-05-22T06:40:48.832Z,99.90
2019-05-22T06:43:23.206Z,99.90
2019-05-22T06:45:49.455Z,99.90
2019-05-22T06:48:15.916Z,99.90
2019-05-22T06:50:42.173Z,99.90
2019-05-22T06:53:10.249Z,99.90
2019-05-22T06:55:36.653Z,99.90
2019-05-22T06:58:03.123Z,99.90
2019-05-22T07:00:29.274Z,99.90
2019-05-22T07:02:55.426Z,99.90
2019-05-22T07:05:23.308Z,99.90
2019-05-22T07:07:49.899Z,99.90
2019-05-22T07:10:16.148Z,99.90
2019-05-22T07:12:42.927Z,99.90
2019-05-22T07:15:20.924Z,99.90
2019-05-22T07:17:48.429Z,99.90
2019-05-22T07:20:14.968Z,99.90
2019-05-22T07:22:42.542Z,99.90
2019-05-22T07:25:11.030Z,99.90
2019-05-22T07:27:37.791Z,99.90
2019-05-22T07:30:07.218Z,99.90
2019-05-22T07:32:33.561Z,99.90
2019-05-22T07:35:00.313Z,99.90
2019-05-22T07:37:27.476Z,99.90
2019-05-22T07:39:53.679Z,99.90
2019-05-22T07:42:19.825Z,99.90
2019-05-22T07:44:46.183Z,99.90
2019-05-22T07:47:14.733Z,99.90
2019-05-22T07:49:41.177Z,99.90
2019-05-22T07:52:08.354Z,99.90
2019-05-22T07:54:34.836Z,99.90
2019-05-22T07:57:01.784Z,99.90
2019-05-22T07:59:28.032Z,99.90
2019-05-22T08:01:54.213Z,99.90
2019-05-22T08:04:20.602Z,99.90
2019-05-22T08:06:46.941Z,99.90
2019-05-22T08:09:16.262Z,99.90
2019-05-22T08:11:42.545Z,99.90
2019-05-22T08:14:09.707Z,99.90
2019-05-22T08:16:36.664Z,99.90
2019-05-22T08:19:03.139Z,99.90
2019-05-22T08:21:29.388Z,99.90
2019-05-22T08:23:56.761Z,99.90
2019-05-22T08:26:24.128Z,99.90
2019-05-22T08:28:50.524Z,99.90
2019-05-22T08:31:17.584Z,99.70
2019-05-22T08:33:45.086Z,99.50
2019-05-22T08:36:11.804Z,99.70
2019-05-22T08:38:43.202Z,99.80
2019-05-22T08:41:11.158Z,99.90
2019-05-22T08:44:03.271Z,99.00
2019-05-22T08:46:09.170Z,99.10
2019-05-22T08:48:35.722Z,98.40
2019-05-22T08:51:04.107Z,98.40
2019-05-22T08:53:46.205Z,98.30
2019-05-22T08:56:00.133Z,97.90
2019-05-22T08:58:26.393Z,97.50
2019-05-22T09:00:52.769Z,97.80
2019-05-22T09:03:18.920Z,97.90
2019-05-22T09:05:45.324Z,97.00
2019-05-22T09:08:11.640Z,97.00
2019-05-22T09:10:37.705Z,97.50
2019-05-22T09:13:03.920Z,97.30
2019-05-22T09:15:31.876Z,96.80
2019-05-22T09:17:59.422Z,96.40
2019-05-22T09:20:26.181Z,96.70
2019-05-22T09:22:52.432Z,96.40
2019-05-22T09:25:18.907Z,96.80
2019-05-22T09:27:46.766Z,97.30
2019-05-22T09:30:13.315Z,96.60
2019-05-22T09:32:39.577Z,95.80
2019-05-22T09:35:07.022Z,95.60
2019-05-22T09:37:34.370Z,96.00
2019-05-22T09:40:00.420Z,95.70
2019-05-22T09:42:27.497Z,95.30
2019-05-22T09:44:53.583Z,95.60
2019-05-22T09:47:23.222Z,95.40
2019-05-22T09:49:49.524Z,95.50
2019-05-22T09:52:17.077Z,93.60
2019-05-22T09:54:43.447Z,92.90
2019-05-22T09:57:09.517Z,93.10
2019-05-22T09:59:35.658Z,92.90
2019-05-22T10:02:04.028Z,92.80
2019-05-22T10:04:30.524Z,91.70
2019-05-22T10:06:56.575Z,91.00
2019-05-22T10:09:24.740Z,90.80
2019-05-22T10:11:52.111Z,91.20
2019-05-22T10:14:18.264Z,89.80
2019-05-22T10:16:44.327Z,89.60
2019-05-22T10:19:10.624Z,90.20
2019-05-22T10:21:37.824Z,90.50
2019-05-22T10:24:06.200Z,90.60
2019-05-22T10:26:33.257Z,89.50
2019-05-22T10:28:59.828Z,88.00
2019-05-22T10:31:26.487Z,87.00
2019-05-22T10:33:53.673Z,86.80
2019-05-22T10:36:19.835Z,88.30
2019-05-22T10:38:46.217Z,87.20
2019-05-22T10:41:12.756Z,86.20
2019-05-22T10:43:39.111Z,85.70
2019-05-22T10:46:05.901Z,84.60
2019-05-22T10:48:32.059Z,82.00
2019-05-22T10:50:58.632Z,81.00
2019-05-22T10:53:33.523Z,79.70
2019-05-22T10:55:53.684Z,79.20
2019-05-22T10:58:19.773Z,79.40
2019-05-22T11:00:46.020Z,80.90
2019-05-22T11:03:12.432Z,81.10
2019-05-22T11:05:39.316Z,79.20
2019-05-22T11:08:05.988Z,79.90
2019-05-22T11:10:32.573Z,80.60
2019-05-22T11:12:59.420Z,82.00
2019-05-22T11:15:26.279Z,80.10
2019-05-22T11:17:53.110Z,81.00
2019-05-22T11:20:19.557Z,81.30
2019-05-22T11:22:45.914Z,82.70
2019-05-22T11:25:14.293Z,81.70
2019-05-22T11:27:40.755Z,82.20
2019-05-22T11:30:13.113Z,81.00
2019-05-22T11:32:39.463Z,80.90
2019-05-22T11:35:07.056Z,78.10
2019-05-22T11:37:33.200Z,78.60
2019-05-22T11:39:59.627Z,78.10
2019-05-22T11:42:25.875Z,78.60
2019-05-22T11:44:52.709Z,76.90
2019-05-22T11:47:19.066Z,77.40
2019-05-22T11:49:45.169Z,76.30
2019-05-22T11:52:11.528Z,76.40
2019-05-22T11:54:37.586Z,76.20
2019-05-22T11:57:03.833Z,75.70
2019-05-22T11:59:31.031Z,72.10
2019-05-22T12:01:57.404Z,72.50
2019-05-22T12:04:23.877Z,71.90
2019-05-22T12:06:53.435Z,70.90
2019-05-22T12:09:18.697Z,72.80
2019-05-22T12:11:45.051Z,73.30
2019-05-22T12:14:11.866Z,74.90
2019-05-22T12:16:39.576Z,73.80
2019-05-22T12:19:06.244Z,71.10
2019-05-22T12:21:32.895Z,72.40
2019-05-22T12:24:00.590Z,71.40
2019-05-22T12:26:27.660Z,69.70
2019-05-22T12:28:54.005Z,69.40
2019-05-22T12:31:20.440Z,69.40
2019-05-22T12:33:47.191Z,68.30
2019-05-22T12:36:13.482Z,67.20
2019-05-22T12:38:40.543Z,69.00
2019-05-22T12:41:07.605Z,66.40
2019-05-22T12:43:34.472Z,64.90
2019-05-22T12:46:01.088Z,66.00
2019-05-22T12:48:27.250Z,66.40
2019-05-22T12:50:53.291Z,64.80
2019-05-22T12:53:21.158Z,64.30
2019-05-22T12:55:48.028Z,64.70
2019-05-22T12:58:14.096Z,65.40
2019-05-22T13:00:40.696Z,63.20
2019-05-22T13:03:07.054Z,64.90
2019-05-22T13:05:35.534Z,66.10
2019-05-22T13:08:02.592Z,65.90
2019-05-22T13:10:29.675Z,65.30
2019-05-22T13:12:56.332Z,66.10
2019-05-22T13:15:23.500Z,66.70
2019-05-22T13:17:50.903Z,66.40
2019-05-22T13:20:18.774Z,67.80
2019-05-22T13:22:47.304Z,68.00
2019-05-22T13:25:14.752Z,68.20
2019-05-22T13:27:41.217Z,68.30
2019-05-22T13:30:10.284Z,67.90
2019-05-22T13:32:36.959Z,68.20
2019-05-22T13:35:07.062Z,66.60
2019-05-22T13:37:34.047Z,66.70
2019-05-22T13:40:00.110Z,66.60
2019-05-22T13:42:26.875Z,66.40
2019-05-22T13:44:53.466Z,64.90
2019-05-22T13:47:19.709Z,66.10
2019-05-22T13:49:46.163Z,65.10
2019-05-22T13:52:13.528Z,62.80
2019-05-22T13:54:41.107Z,62.70
2019-05-22T13:57:08.685Z,61.60
2019-05-22T13:59:35.560Z,61.50
2019-05-22T14:02:01.842Z,60.00
2019-05-22T14:04:28.150Z,59.10
2019-05-22T14:06:54.858Z,59.20
2019-05-22T14:09:22.026Z,61.40
2019-05-22T14:11:48.596Z,60.30
2019-05-22T14:14:14.972Z,59.40
2019-05-22T14:16:48.482Z,60.00
2019-05-22T14:19:10.013Z,60.40
2019-05-22T14:21:36.147Z,61.20
2019-05-22T14:24:02.212Z,59.40
2019-05-22T14:26:30.024Z,60.10
2019-05-22T14:28:56.857Z,60.10
2019-05-22T14:31:22.992Z,59.00
2019-05-22T14:33:49.290Z,60.10
2019-05-22T14:36:15.956Z,61.40
2019-05-22T14:38:43.422Z,62.20
2019-05-22T14:41:09.897Z,62.00
2019-05-22T14:43:36.372Z,62.30
2019-05-22T14:46:02.673Z,61.70
2019-05-22T14:48:28.945Z,61.80
2019-05-22T14:50:55.244Z,62.50
2019-05-22T14:53:21.302Z,60.90
2019-05-22T14:56:11.098Z,61.50
2019-05-22T14:58:38.040Z,61.80
2019-05-22T15:01:04.752Z,62.00
2019-05-22T15:03:30.884Z,61.40
2019-05-22T15:05:56.982Z,61.70
2019-05-22T15:08:23.125Z,61.10
2019-05-22T15:10:49.698Z,60.40
2019-05-22T15:13:16.174Z,59.20
2019-05-22T15:15:42.351Z,59.40
2019-05-22T15:18:09.816Z,59.10
2019-05-22T15:20:48.578Z,58.60
2019-05-22T15:23:14.926Z,58.80
2019-05-22T15:25:41.772Z,57.90
2019-05-22T15:28:08.439Z,58.60
2019-05-22T15:30:35.133Z,58.40
2019-05-22T15:33:01.283Z,58.60
2019-05-22T15:35:27.920Z,58.60
2019-05-22T15:37:55.235Z,57.60
2019-05-22T15:40:22.662Z,58.10
2019-05-22T15:42:48.981Z,58.70
2019-05-22T15:45:21.123Z,59.50
2019-05-22T15:47:55.632Z,59.10
2019-05-22T15:50:20.449Z,59.50
2019-05-22T15:52:55.040Z,58.50
2019-05-22T15:55:24.206Z,59.60
2019-05-22T15:57:50.839Z,60.90
2019-05-22T16:00:21.817Z,60.00
2019-05-22T16:02:48.964Z,60.10
2019-05-22T16:05:18.383Z,60.50
2019-05-22T16:07:47.048Z,60.30
2019-05-22T16:10:14.051Z,61.00
2019-05-22T16:12:40.515Z,61.30
2019-05-22T16:15:07.547Z,63.10
2019-05-22T16:17:35.924Z,63.00
2019-05-22T16:20:04.291Z,61.70
2019-05-22T16:22:30.483Z,61.50
2019-05-22T16:24:57.539Z,60.70
2019-05-22T16:27:24.121Z,60.30
2019-05-22T16:29:50.682Z,60.40
2019-05-22T16:32:18.347Z,61.00
2019-05-22T16:34:44.913Z,60.80
2019-05-22T16:37:12.195Z,61.00
2019-05-22T16:39:39.826Z,60.70
2019-05-22T16:42:06.585Z,61.30
2019-05-22T16:44:33.343Z,61.60
2019-05-22T16:46:59.696Z,62.00
2019-05-22T16:49:26.363Z,63.00
2019-05-22T16:51:53.413Z,63.80
2019-05-22T16:54:20.893Z,65.30
2019-05-22T16:56:47.453Z,65.50
2019-05-22T16:59:13.791Z,64.80
2019-05-22T17:01:57.826Z,65.50
2019-05-22T17:04:10.034Z,65.30
2019-05-22T17:06:36.719Z,63.50
2019-05-22T17:09:07.200Z,63.30
2019-05-22T17:11:33.900Z,63.30
2019-05-22T17:14:03.908Z,64.30
2019-05-22T17:16:32.880Z,64.30
2019-05-22T17:18:59.463Z,64.70
2019-05-22T17:21:26.970Z,64.70
2019-05-22T17:23:53.337Z,65.40
2019-05-22T17:26:19.577Z,65.80
2019-05-22T17:28:46.624Z,65.70
2019-05-22T17:31:13.575Z,66.80
2019-05-22T17:33:39.877Z,67.40
2019-05-22T17:36:06.247Z,67.60
2019-05-22T17:38:33.213Z,69.00
2019-05-22T17:41:00.581Z,70.40
2019-05-22T17:43:28.211Z,68.00
2019-05-22T17:45:54.680Z,64.40
2019-05-22T17:48:21.238Z,66.50
2019-05-22T17:50:47.724Z,67.40
2019-05-22T17:53:14.480Z,65.80
2019-05-22T17:55:41.682Z,66.70
2019-05-22T17:58:09.520Z,66.50
2019-05-22T18:00:40.838Z,62.40
2019-05-22T18:03:07.877Z,63.20
2019-05-22T18:05:34.851Z,62.00
2019-05-22T18:08:01.285Z,62.60
2019-05-22T18:10:30.902Z,64.50
2019-05-22T18:12:57.095Z,64.00
2019-05-22T18:15:23.454Z,64.00
2019-05-22T18:17:50.113Z,61.90
2019-05-22T18:20:17.395Z,63.60
2019-05-22T18:22:45.004Z,62.50
2019-05-22T18:25:12.480Z,63.20
2019-05-22T18:27:38.760Z,64.30
2019-05-22T18:30:05.653Z,65.90
2019-05-22T18:32:35.311Z,66.30
2019-05-22T18:35:01.380Z,67.10
2019-05-22T18:37:27.555Z,67.80
2019-05-22T18:39:53.612Z,68.30
2019-05-22T18:42:19.683Z,68.90
2019-05-22T18:44:45.751Z,69.30
2019-05-22T18:47:11.809Z,69.90
2019-05-22T18:49:37.864Z,71.20
2019-05-22T18:52:04.416Z,72.40
2019-05-22T18:54:30.477Z,72.40
2019-05-22T18:56:56.568Z,73.20
2019-05-22T18:59:22.637Z,73.90
2019-05-22T19:01:48.790Z,74.30
2019-05-22T19:04:15.050Z,75.40
2019-05-22T19:06:41.537Z,75.50
2019-05-22T19:09:08.763Z,76.20
2019-05-22T19:11:34.955Z,76.80
2019-05-22T19:14:01.318Z,77.60
2019-05-22T19:16:28.134Z,78.30
2019-05-22T19:18:54.297Z,78.70
2019-05-22T19:21:20.544Z,78.90
2019-05-22T19:23:47.519Z,80.50
2019-05-22T19:26:13.567Z,81.10
2019-05-22T19:28:44.025Z,81.50
2019-05-22T19:31:08.656Z,82.20
2019-05-22T19:33:34.714Z,83.00
2019-05-22T19:36:00.972Z,83.50
2019-05-22T19:38:27.336Z,83.50
2019-05-22T19:40:53.904Z,84.10
2019-05-22T19:43:19.963Z,84.00
2019-05-22T19:45:46.221Z,84.70
2019-05-22T19:48:16.269Z,86.10
2019-05-22T19:50:43.880Z,87.60
2019-05-22T19:53:18.818Z,87.50
2019-05-22T19:55:40.338Z,88.00
2019-05-22T19:58:06.608Z,88.00
2019-05-22T20:00:33.134Z,90.00
2019-05-22T20:03:00.992Z,90.10
2019-05-22T20:05:27.508Z,90.00
2019-05-22T20:07:53.755Z,90.10
2019-05-22T20:10:20.619Z,91.20
2019-05-22T20:12:46.887Z,91.40
2019-05-22T20:15:14.040Z,91.30
2019-05-22T20:17:40.423Z,91.10
2019-05-22T20:20:08.000Z,91.50
2019-05-22T20:22:34.368Z,91.70
2019-05-22T20:25:00.422Z,91.80
2019-05-22T20:27:26.520Z,92.00
2019-05-22T20:29:52.868Z,92.20
2019-05-22T20:32:18.928Z,92.40
2019-05-22T20:34:46.987Z,92.60
2019-05-22T20:37:13.351Z,92.80
2019-05-22T20:39:39.454Z,93.00
2019-05-22T20:42:07.012Z,93.30
2019-05-22T20:44:33.475Z,93.60
2019-05-22T20:47:01.607Z,93.90
2019-05-22T20:49:28.526Z,94.20
2019-05-22T20:51:55.585Z,94.80
2019-05-22T20:54:22.240Z,94.80
2019-05-22T20:56:49.995Z,95.00
2019-05-22T20:59:16.494Z,95.10
2019-05-22T21:01:45.644Z,95.40
2019-05-22T21:04:13.029Z,95.60
2019-05-22T21:06:43.579Z,95.80
2019-05-22T21:09:10.736Z,96.10
2019-05-22T21:11:37.592Z,96.20
2019-05-22T21:14:04.747Z,96.30
2019-05-22T21:16:31.140Z,96.50
2019-05-22T21:18:58.117Z,96.60
2019-05-22T21:21:25.352Z,96.80
2019-05-22T21:23:52.041Z,96.80
2019-05-22T21:26:20.331Z,96.80
2019-05-22T21:28:47.890Z,97.10
2019-05-22T21:31:16.047Z,96.90
2019-05-22T21:33:43.515Z,97.00
2019-05-22T21:36:10.174Z,97.20
2019-05-22T21:38:36.603Z,97.20
2019-05-22T21:41:03.082Z,97.30
2019-05-22T21:43:29.849Z,97.50
2019-05-22T21:45:56.708Z,97.50
2019-05-22T21:48:23.623Z,97.60
2019-05-22T21:50:49.703Z,97.70
2019-05-22T21:53:16.188Z,97.80
2019-05-22T21:55:45.627Z,97.90
2019-05-22T21:58:12.231Z,98.00
2019-05-22T22:00:46.907Z,98.00
2019-05-22T22:03:17.732Z,98.10
2019-05-22T22:05:44.494Z,98.20
2019-05-22T22:08:12.031Z,98.30
2019-05-22T22:10:38.796Z,98.50
2019-05-22T22:13:07.738Z,98.60
2019-05-22T22:15:35.872Z,98.60
2019-05-22T22:18:03.942Z,98.80
2019-05-22T22:20:30.096Z,98.90
2019-05-22T22:22:56.216Z,99.10
2019-05-22T22:25:23.271Z,99.20
2019-05-22T22:27:49.332Z,99.20
2019-05-22T22:30:26.627Z,99.30
2019-05-22T22:32:56.159Z,99.40
2019-05-22T22:35:22.296Z,99.50
2019-05-22T22:37:48.536Z,99.60
2019-05-22T22:40:18.472Z,99.70
2019-05-22T22:42:46.329Z,99.80
2019-05-22T22:45:18.156Z,99.90
2019-05-22T22:47:44.635Z,99.90
2019-05-22T22:50:12.051Z,99.90
2019-05-22T22:52:41.271Z,99.90
2019-05-22T22:55:11.023Z,99.90
2019-05-22T22:57:37.681Z,99.90
2019-05-22T23:00:04.868Z,99.90
2019-05-22T23:02:32.327Z,99.90
2019-05-22T23:04:58.988Z,99.90
2019-05-22T23:07:26.260Z,99.90
2019-05-22T23:09:52.317Z,99.90
2019-05-22T23:12:19.092Z,99.90
2019-05-22T23:14:49.861Z,99.90
2019-05-22T23:17:16.115Z,99.90
2019-05-22T23:19:42.557Z,99.90
2019-05-22T23:22:10.345Z,99.90
2019-05-22T23:24:38.297Z,99.90
2019-05-22T23:27:05.983Z,99.90
2019-05-22T23:29:32.137Z,99.90
2019-05-22T23:31:58.393Z,99.90
2019-05-22T23:34:26.570Z,99.90
2019-05-22T23:36:53.249Z,99.90
2019-05-22T23:39:19.719Z,99.90
2019-05-22T23:41:45.983Z,99.90
2019-05-22T23:44:17.539Z,99.90
2019-05-22T23:46:43.976Z,99.90
2019-05-22T23:49:11.183Z,99.90
2019-05-22T23:51:37.446Z,99.90
2019-05-22T23:54:04.403Z,99.90
2019-05-22T23:56:32.364Z,99.90
2019-05-22T23:58:58.441Z,99.90
